M/V Humpback — WCY3381 — position and weather

sailwx.info

Track history (hours):
 
Tides and Currents Weather Stations Pressure Air Temp Water Temp Dewpoint Dewpoint Depression Visibility Wind Speed Wind Dir Waves Ship Positions

M/V Humpback

Owner: R W MILLER ENTERPRISES INC, FRIDAY HARBOR, WA. More information available from US FCC via Universal Licensing System and Coast Guard Vessel Documentation Center.

Last reported at 2015-Aug-07 23:30 UTC. Time now 2015-Aug-31 08:55 UTC.
Position N 48°40' W 123°10'.
Warning: this ship's position is 23 days out of date.

Length 16 m.

Type: Passenger vessel. MMSI: 367350790.

Date/timePositionNaut miles runAvg speedWind from/ knotsBaromVisibWave heightAir tempDewpointWater temp
2015-Aug-07 23:30N 48°40' W 123°10'3 2.7
2015-Aug-07 22:20N 48°37' W 123°09'1 1.5
2015-Aug-07 21:25N 48°38' W 123°10'1 0.4
2015-Aug-07 19:45N 48°38' W 123°10'2 0.5
2015-Aug-07 16:00N 48°37' W 123°09'0 0.0
2015-Aug-07 15:30N 48°37' W 123°09'0 0.0
2015-Aug-07 14:30N 48°37' W 123°09'0 0.0
2015-Aug-07 13:00N 48°37' W 123°09'0 0.0
2015-Aug-07 12:30N 48°37' W 123°09'0 0.0
2015-Aug-07 11:30N 48°37' W 123°09'0 0.0
2015-Aug-07 09:00N 48°37' W 123°09'0 0.0
2015-Aug-07 07:30N 48°37' W 123°09'0 0.0
2015-Aug-07 06:30N 48°37' W 123°09'0 0.0
2015-Aug-07 04:30N 48°37' W 123°09'0 0.0
2015-Aug-07 03:30N 48°37' W 123°09'0 0.0
2015-Aug-07 01:15N 48°37' W 123°09'1 0.6
2015-Aug-06 22:55N 48°38' W 123°10'1 0.6
2015-Aug-06 20:45N 48°37' W 123°09'0 0.9
2015-Aug-06 20:20N 48°37' W 123°10'1 0.2
2015-Aug-06 17:15N 48°37' W 123°10'1 0.6
2015-Aug-06 15:50N 48°36' W 123°09'0 0.1
2015-Aug-06 14:30N 48°37' W 123°09'0 0.0
2015-Aug-06 13:25N 48°37' W 123°09'0 0.0
2015-Aug-06 11:10N 48°37' W 123°09'0 0.0
2015-Aug-05 22:55N 48°37' W 123°09'0 0.3
2015-Aug-05 21:39N 48°37' W 123°10'2 7.0
2015-Aug-05 21:24N 48°39' W 123°10'0 1.8
2015-Aug-05 21:11N 48°39' W 123°10'2 0.2
2015-Aug-05 10:24N 48°37' W 123°09'0 0.0
2015-Aug-05 08:39N 48°37' W 123°09'0 0.0
2015-Aug-05 03:39N 48°37' W 123°09'0 0.0
2015-Aug-05 03:09N 48°37' W 123°09'0 0.0
2015-Aug-05 01:09N 48°37' W 123°09'0 0.0
2015-Aug-05 00:09N 48°37' W 123°09'3 0.1
2015-Aug-03 19:03N 48°40' W 123°10'1 0.2
2015-Aug-03 13:16N 48°39' W 123°10'2 0.5
2015-Aug-03 07:54N 48°37' W 123°09'0 0.0
2015-Aug-03 07:24N 48°37' W 123°09'0 0.0
2015-Aug-03 05:39N 48°37' W 123°09'0 0.0
2015-Aug-03 04:24N 48°37' W 123°09'0 0.0
2015-Aug-02 07:27N 48°37' W 123°09'0 0.0
2015-Aug-02 06:12N 48°37' W 123°09'0 0.0
2015-Aug-02 05:57N 48°37' W 123°09'0 0.0
2015-Aug-02 03:27N 48°37' W 123°09'0 0.0
2015-Aug-02 02:27N 48°37' W 123°09'0 0.0
2015-Aug-02 01:12N 48°37' W 123°09'0 0.0
2015-Aug-01 20:51N 48°37' W 123°09'0 0.0
2015-Aug-01 19:36N 48°37' W 123°09'0 0.0
2015-Aug-01 19:21N 48°37' W 123°09'0 0.0
2015-Aug-01 18:21N 48°37' W 123°09'0 0.0
2015-Aug-01 17:21N 48°37' W 123°09'0 0.0
2015-Aug-01 15:51N 48°37' W 123°09'0 0.0
2015-Aug-01 11:00N 48°37' W 123°09'0 0.0
2015-Aug-01 10:30N 48°37' W 123°09'0 0.0
2015-Aug-01 00:39N 48°37' W 123°09'0 0.0
2015-Jul-31 23:54N 48°37' W 123°09'0 0.0
2015-Jul-30 09:55N 48°37' W 123°09'0 0.0
2015-Jul-30 09:25N 48°37' W 123°09'0 0.0
2015-Jul-30 03:19N 48°37' W 123°09'0 0.0
2015-Jul-30 01:49N 48°37' W 123°09'0 0.0
2015-Jul-30 01:19N 48°37' W 123°09'0 0.0
2015-Jul-29 17:18N 48°37' W 123°09'  
Track history (hours):
 
Tides and Currents Weather Stations Pressure Air Temp Water Temp Dewpoint Dewpoint Depression Visibility Wind Speed Wind Dir Waves Ship Positions

M/V Humpback

Owner: R W MILLER ENTERPRISES INC, FRIDAY HARBOR, WA. More information available from US FCC via Universal Licensing System and Coast Guard Vessel Documentation Center.

Last reported at 2015-Aug-07 23:30 UTC. Time now 2015-Aug-31 08:55 UTC.
Position N 48°40' W 123°10'.
Warning: this ship's position is 23 days out of date.

Length 16 m.

Type: Passenger vessel. MMSI: 367350790.

Date/timePositionNaut miles runAvg speedWind from/ knotsBaromVisibWave heightAir tempDewpointWater temp
2015-Aug-07 23:30N 48°40' W 123°10'3 2.7
2015-Aug-07 22:20N 48°37' W 123°09'1 1.5
2015-Aug-07 21:25N 48°38' W 123°10'1 0.4
2015-Aug-07 19:45N 48°38' W 123°10'2 0.5
2015-Aug-07 16:00N 48°37' W 123°09'0 0.0
2015-Aug-07 15:30N 48°37' W 123°09'0 0.0
2015-Aug-07 14:30N 48°37' W 123°09'0 0.0
2015-Aug-07 13:00N 48°37' W 123°09'0 0.0
2015-Aug-07 12:30N 48°37' W 123°09'0 0.0
2015-Aug-07 11:30N 48°37' W 123°09'0 0.0
2015-Aug-07 09:00N 48°37' W 123°09'0 0.0
2015-Aug-07 07:30N 48°37' W 123°09'0 0.0
2015-Aug-07 06:30N 48°37' W 123°09'0 0.0
2015-Aug-07 04:30N 48°37' W 123°09'0 0.0
2015-Aug-07 03:30N 48°37' W 123°09'0 0.0
2015-Aug-07 01:15N 48°37' W 123°09'1 0.6
2015-Aug-06 22:55N 48°38' W 123°10'1 0.6
2015-Aug-06 20:45N 48°37' W 123°09'0 0.9
2015-Aug-06 20:20N 48°37' W 123°10'1 0.2
2015-Aug-06 17:15N 48°37' W 123°10'1 0.6
2015-Aug-06 15:50N 48°36' W 123°09'0 0.1
2015-Aug-06 14:30N 48°37' W 123°09'0 0.0
2015-Aug-06 13:25N 48°37' W 123°09'0 0.0
2015-Aug-06 11:10N 48°37' W 123°09'0 0.0
2015-Aug-05 22:55N 48°37' W 123°09'0 0.3
2015-Aug-05 21:39N 48°37' W 123°10'2 7.0
2015-Aug-05 21:24N 48°39' W 123°10'0 1.8
2015-Aug-05 21:11N 48°39' W 123°10'2 0.2
2015-Aug-05 10:24N 48°37' W 123°09'0 0.0
2015-Aug-05 08:39N 48°37' W 123°09'0 0.0
2015-Aug-05 03:39N 48°37' W 123°09'0 0.0
2015-Aug-05 03:09N 48°37' W 123°09'0 0.0
2015-Aug-05 01:09N 48°37' W 123°09'0 0.0
2015-Aug-05 00:09N 48°37' W 123°09'3 0.1
2015-Aug-03 19:03N 48°40' W 123°10'1 0.2
2015-Aug-03 13:16N 48°39' W 123°10'2 0.5
2015-Aug-03 07:54N 48°37' W 123°09'0 0.0
2015-Aug-03 07:24N 48°37' W 123°09'0 0.0
2015-Aug-03 05:39N 48°37' W 123°09'0 0.0
2015-Aug-03 04:24N 48°37' W 123°09'0 0.0
2015-Aug-02 07:27N 48°37' W 123°09'0 0.0
2015-Aug-02 06:12N 48°37' W 123°09'0 0.0
2015-Aug-02 05:57N 48°37' W 123°09'0 0.0
2015-Aug-02 03:27N 48°37' W 123°09'0 0.0
2015-Aug-02 02:27N 48°37' W 123°09'0 0.0
2015-Aug-02 01:12N 48°37' W 123°09'0 0.0
2015-Aug-01 20:51N 48°37' W 123°09'0 0.0
2015-Aug-01 19:36N 48°37' W 123°09'0 0.0
2015-Aug-01 19:21N 48°37' W 123°09'0 0.0
2015-Aug-01 18:21N 48°37' W 123°09'0 0.0
2015-Aug-01 17:21N 48°37' W 123°09'0 0.0
2015-Aug-01 15:51N 48°37' W 123°09'0 0.0
2015-Aug-01 11:00N 48°37' W 123°09'0 0.0
2015-Aug-01 10:30N 48°37' W 123°09'0 0.0
2015-Aug-01 00:39N 48°37' W 123°09'0 0.0
2015-Jul-31 23:54N 48°37' W 123°09'0 0.0
2015-Jul-30 09:55N 48°37' W 123°09'0 0.0
2015-Jul-30 09:25N 48°37' W 123°09'0 0.0
2015-Jul-30 03:19N 48°37' W 123°09'0 0.0
2015-Jul-30 01:49N 48°37' W 123°09'0 0.0
2015-Jul-30 01:19N 48°37' W 123°09'0 0.0
2015-Jul-29 17:18N 48°37' W 123°09'  

Dump ship's entire track history